Buena Vista, Wisconsin
Current Conditions -  °F | °C
As of 10:35 AM on Monday 24 Nov 2014 (Local Time) from KSTE Reporting Station
Moderate Rain Moderate Rain  
Wind Chill: 26°   Ceiling: 800
Heat Index: 34°   Visibility: 5mi
Dew Point: 33°   Wind: 10mph
Humidity: 97%   Direction: 300°WNW
Pressure: 29.12"   Gusts: NA
Location:  44.4117°N, 89.5378°W
Report Text: KSTE 241635Z AUTO 30009KT 5SM RA OVC008 01/01 A2912 RMK AO2 T00090005
Loading
Personal Weather Stations






























Interactive Weather Map New forecast layout! Learn more

10-Day Weather Forecast

Advertisements
Track Severe Weather on mobile